sensor_id;sensor_type;location;lat;lon;timestamp;pressure;altitude;pressure_sealevel;temperature;humidity
54876;BME280;40764;48.472;8.166;2024-01-30T00:04:35;99561.44;;;2.71;100.00
54876;BME280;40764;48.472;8.166;2024-01-30T00:10:36;99560.88;;;2.42;100.00
54876;BME280;40764;48.472;8.166;2024-01-30T00:16:36;99560.03;;;2.62;100.00
54876;BME280;40764;48.472;8.166;2024-01-30T00:22:36;99565.22;;;2.50;100.00
54876;BME280;40764;48.472;8.166;2024-01-30T00:28:38;99563.19;;;2.32;100.00
54876;BME280;40764;48.472;8.166;2024-01-30T00:34:38;99569.19;;;2.41;100.00
54876;BME280;40764;48.472;8.166;2024-01-30T00:40:38;99566.69;;;2.39;100.00
54876;BME280;40764;48.472;8.166;2024-01-30T00:46:38;99564.84;;;2.33;100.00
54876;BME280;40764;48.472;8.166;2024-01-30T00:52:39;99565.03;;;2.32;100.00
54876;BME280;40764;48.472;8.166;2024-01-30T00:58:41;99565.03;;;2.25;100.00
54876;BME280;40764;48.472;8.166;2024-01-30T01:04:41;99561.50;;;2.44;100.00
54876;BME280;40764;48.472;8.166;2024-01-30T01:10:41;99562.75;;;2.42;100.00
54876;BME280;40764;48.472;8.166;2024-01-30T01:16:42;99568.34;;;2.21;100.00
54876;BME280;40764;48.472;8.166;2024-01-30T01:22:42;99564.00;;;2.39;100.00
54876;BME280;40764;48.472;8.166;2024-01-30T01:28:42;99560.44;;;2.45;100.00
54876;BME280;40764;48.472;8.166;2024-01-30T01:34:43;99553.38;;;2.31;100.00
54876;BME280;40764;48.472;8.166;2024-01-30T01:40:43;99554.84;;;2.27;100.00
54876;BME280;40764;48.472;8.166;2024-01-30T01:46:44;99545.09;;;2.46;100.00
54876;BME280;40764;48.472;8.166;2024-01-30T01:52:47;99549.06;;;2.37;100.00
54876;BME280;40764;48.472;8.166;2024-01-30T01:58:47;99548.66;;;2.33;100.00
54876;BME280;40764;48.472;8.166;2024-01-30T02:04:50;99541.59;;;2.32;100.00
54876;BME280;40764;48.472;8.166;2024-01-30T02:10:50;99546.34;;;2.24;100.00
54876;BME280;40764;48.472;8.166;2024-01-30T02:16:50;99551.56;;;2.12;100.00
54876;BME280;40764;48.472;8.166;2024-01-30T02:22:52;99544.47;;;2.31;100.00
54876;BME280;40764;48.472;8.166;2024-01-30T02:28:54;99545.94;;;2.27;100.00
54876;BME280;40764;48.472;8.166;2024-01-30T02:34:54;99543.44;;;2.25;100.00
54876;BME280;40764;48.472;8.166;2024-01-30T02:40:54;99552.59;;;2.37;100.00
54876;BME280;40764;48.472;8.166;2024-01-30T02:46:56;99551.72;;;2.30;100.00
54876;BME280;40764;48.472;8.166;2024-01-30T02:52:56;99544.91;;;2.08;100.00
54876;BME280;40764;48.472;8.166;2024-01-30T02:58:56;99552.38;;;2.12;100.00
54876;BME280;40764;48.472;8.166;2024-01-30T03:04:57;99550.06;;;2.29;100.00
54876;BME280;40764;48.472;8.166;2024-01-30T03:10:57;99549.06;;;2.10;100.00
54876;BME280;40764;48.472;8.166;2024-01-30T03:16:58;99552.38;;;2.32;100.00
54876;BME280;40764;48.472;8.166;2024-01-30T03:23:00;99555.91;;;2.20;100.00
54876;BME280;40764;48.472;8.166;2024-01-30T03:29:00;99563.38;;;2.24;100.00
54876;BME280;40764;48.472;8.166;2024-01-30T03:35:00;99557.56;;;2.27;100.00
54876;BME280;40764;48.472;8.166;2024-01-30T03:41:01;99550.72;;;2.25;100.00
54876;BME280;40764;48.472;8.166;2024-01-30T03:47:01;99561.09;;;2.21;100.00
54876;BME280;40764;48.472;8.166;2024-01-30T03:53:01;99556.50;;;2.28;100.00
54876;BME280;40764;48.472;8.166;2024-01-30T03:59:01;99564.19;;;2.31;100.00
54876;BME280;40764;48.472;8.166;2024-01-30T04:05:03;99562.13;;;2.20;100.00
54876;BME280;40764;48.472;8.166;2024-01-30T04:11:06;99556.34;;;2.10;100.00
54876;BME280;40764;48.472;8.166;2024-01-30T04:17:07;99561.69;;;2.30;100.00
54876;BME280;40764;48.472;8.166;2024-01-30T04:23:07;99549.69;;;2.19;100.00
54876;BME280;40764;48.472;8.166;2024-01-30T04:29:07;99558.63;;;2.13;100.00
54876;BME280;40764;48.472;8.166;2024-01-30T04:35:07;99549.25;;;2.35;100.00
54876;BME280;40764;48.472;8.166;2024-01-30T04:41:08;99550.28;;;2.41;100.00
54876;BME280;40764;48.472;8.166;2024-01-30T04:47:08;99553.81;;;2.22;100.00
54876;BME280;40764;48.472;8.166;2024-01-30T04:53:11;99554.63;;;2.48;100.00
54876;BME280;40764;48.472;8.166;2024-01-30T04:59:11;99553.38;;;2.31;100.00
54876;BME280;40764;48.472;8.166;2024-01-30T05:05:12;99558.41;;;2.14;100.00
54876;BME280;40764;48.472;8.166;2024-01-30T05:11:12;99556.94;;;2.32;100.00
54876;BME280;40764;48.472;8.166;2024-01-30T05:17:12;99557.13;;;2.30;100.00
54876;BME280;40764;48.472;8.166;2024-01-30T05:23:13;99559.81;;;2.43;100.00
54876;BME280;40764;48.472;8.166;2024-01-30T05:29:14;99561.50;;;2.38;100.00
54876;BME280;40764;48.472;8.166;2024-01-30T05:35:14;99571.22;;;2.52;100.00
54876;BME280;40764;48.472;8.166;2024-01-30T05:41:14;99577.50;;;2.39;100.00
54876;BME280;40764;48.472;8.166;2024-01-30T05:47:14;99578.28;;;2.66;100.00
54876;BME280;40764;48.472;8.166;2024-01-30T05:53:15;99584.13;;;2.43;100.00
54876;BME280;40764;48.472;8.166;2024-01-30T05:59:16;99576.44;;;2.60;100.00
54876;BME280;40764;48.472;8.166;2024-01-30T06:05:16;99578.66;;;2.76;100.00
54876;BME280;40764;48.472;8.166;2024-01-30T06:11:16;99579.69;;;2.82;100.00
54876;BME280;40764;48.472;8.166;2024-01-30T06:17:17;99587.56;;;2.84;100.00
54876;BME280;40764;48.472;8.166;2024-01-30T06:23:17;99581.13;;;2.91;100.00
54876;BME280;40764;48.472;8.166;2024-01-30T06:29:18;99577.59;;;2.91;100.00
54876;BME280;40764;48.472;8.166;2024-01-30T06:35:18;99580.03;;;3.05;100.00
54876;BME280;40764;48.472;8.166;2024-01-30T06:41:18;99584.75;;;3.23;100.00
54876;BME280;40764;48.472;8.166;2024-01-30T06:47:19;99587.69;;;3.15;100.00
54876;BME280;40764;48.472;8.166;2024-01-30T06:53:19;99588.75;;;3.07;100.00
54876;BME280;40764;48.472;8.166;2024-01-30T06:59:19;99592.69;;;3.18;100.00
54876;BME280;40764;48.472;8.166;2024-01-30T07:05:20;99583.06;;;3.29;100.00
54876;BME280;40764;48.472;8.166;2024-01-30T07:11:22;99585.06;;;3.40;100.00
54876;BME280;40764;48.472;8.166;2024-01-30T07:17:23;99575.97;;;3.34;100.00
54876;BME280;40764;48.472;8.166;2024-01-30T07:23:24;99577.88;;;3.27;100.00
54876;BME280;40764;48.472;8.166;2024-01-30T07:29:24;99578.78;;;3.53;100.00
54876;BME280;40764;48.472;8.166;2024-01-30T07:35:24;99576.09;;;3.53;100.00
54876;BME280;40764;48.472;8.166;2024-01-30T07:41:24;99584.66;;;3.43;100.00
54876;BME280;40764;48.472;8.166;2024-01-30T07:47:25;99577.47;;;3.62;100.00
54876;BME280;40764;48.472;8.166;2024-01-30T07:53:25;99590.09;;;3.74;100.00
54876;BME280;40764;48.472;8.166;2024-01-30T07:59:26;99593.88;;;3.98;100.00
54876;BME280;40764;48.472;8.166;2024-01-30T08:05:26;99598.25;;;3.99;100.00
54876;BME280;40764;48.472;8.166;2024-01-30T08:11:26;99600.28;;;4.11;100.00
54876;BME280;40764;48.472;8.166;2024-01-30T08:17:28;99604.53;;;4.50;100.00
54876;BME280;40764;48.472;8.166;2024-01-30T08:23:29;99598.44;;;4.29;100.00
54876;BME280;40764;48.472;8.166;2024-01-30T08:29:29;99597.38;;;4.55;100.00
54876;BME280;40764;48.472;8.166;2024-01-30T08:35:29;99600.13;;;4.74;99.97
54876;BME280;40764;48.472;8.166;2024-01-30T08:41:33;99585.63;;;4.86;99.65
54876;BME280;40764;48.472;8.166;2024-01-30T08:47:33;99583.06;;;5.10;99.29
54876;BME280;40764;48.472;8.166;2024-01-30T08:53:34;99584.66;;;5.66;98.09
54876;BME280;40764;48.472;8.166;2024-01-30T08:59:35;99595.88;;;5.69;97.33
54876;BME280;40764;48.472;8.166;2024-01-30T09:05:35;99599.28;;;6.36;96.91
54876;BME280;40764;48.472;8.166;2024-01-30T09:11:35;99591.88;;;6.67;95.24
54876;BME280;40764;48.472;8.166;2024-01-30T09:17:36;99600.97;;;6.72;96.84
54876;BME280;40764;48.472;8.166;2024-01-30T09:23:36;99598.22;;;6.61;95.81
54876;BME280;40764;48.472;8.166;2024-01-30T09:29:36;99604.75;;;6.83;96.54
54876;BME280;40764;48.472;8.166;2024-01-30T09:35:37;99622.09;;;7.17;94.80
54876;BME280;40764;48.472;8.166;2024-01-30T09:41:45;99620.72;;;7.43;92.60
54876;BME280;40764;48.472;8.166;2024-01-30T09:47:46;99620.75;;;7.71;94.50
54876;BME280;40764;48.472;8.166;2024-01-30T09:53:47;99619.53;;;8.36;90.21
54876;BME280;40764;48.472;8.166;2024-01-30T09:59:48;99619.59;;;8.91;85.79
54876;BME280;40764;48.472;8.166;2024-01-30T10:05:51;99631.53;;;9.46;85.66
54876;BME280;40764;48.472;8.166;2024-01-30T10:11:52;99625.69;;;10.30;74.59
54876;BME280;40764;48.472;8.166;2024-01-30T10:17:53;99622.72;;;10.68;73.52
54876;BME280;40764;48.472;8.166;2024-01-30T10:23:53;99623.94;;;10.82;73.37
54876;BME280;40764;48.472;8.166;2024-01-30T10:29:54;99625.53;;;11.15;70.74
54876;BME280;40764;48.472;8.166;2024-01-30T10:36:02;99621.00;;;11.36;66.37
54876;BME280;40764;48.472;8.166;2024-01-30T10:42:04;99633.78;;;11.21;68.45
54876;BME280;40764;48.472;8.166;2024-01-30T10:48:06;99626.88;;;11.65;64.81
54876;BME280;40764;48.472;8.166;2024-01-30T10:54:10;99619.50;;;11.66;67.12
54876;BME280;40764;48.472;8.166;2024-01-30T11:00:13;99619.59;;;11.86;65.01
54876;BME280;40764;48.472;8.166;2024-01-30T11:06:15;99617.44;;;11.93;66.77
54876;BME280;40764;48.472;8.166;2024-01-30T11:12:22;99610.75;;;11.74;63.13
54876;BME280;40764;48.472;8.166;2024-01-30T11:18:29;99607.03;;;12.00;62.90
54876;BME280;40764;48.472;8.166;2024-01-30T11:24:30;99605.38;;;11.99;63.22
54876;BME280;40764;48.472;8.166;2024-01-30T11:30:31;99596.38;;;12.24;62.22
54876;BME280;40764;48.472;8.166;2024-01-30T11:36:32;99595.84;;;12.48;61.39
54876;BME280;40764;48.472;8.166;2024-01-30T11:42:36;99579.66;;;12.66;62.10
54876;BME280;40764;48.472;8.166;2024-01-30T11:48:38;99582.69;;;12.75;61.09
54876;BME280;40764;48.472;8.166;2024-01-30T11:54:41;99582.63;;;13.00;60.84
54876;BME280;40764;48.472;8.166;2024-01-30T12:00:42;99578.00;;;12.81;62.68
54876;BME280;40764;48.472;8.166;2024-01-30T12:06:42;99583.19;;;12.92;60.69
54876;BME280;40764;48.472;8.166;2024-01-30T12:12:44;99577.47;;;12.79;60.22
54876;BME280;40764;48.472;8.166;2024-01-30T12:18:45;99571.94;;;12.94;61.17
54876;BME280;40764;48.472;8.166;2024-01-30T12:24:45;99560.41;;;13.02;61.19
54876;BME280;40764;48.472;8.166;2024-01-30T12:30:46;99568.34;;;13.09;58.69
54876;BME280;40764;48.472;8.166;2024-01-30T12:36:47;99569.13;;;13.24;57.98
54876;BME280;40764;48.472;8.166;2024-01-30T12:42:49;99559.53;;;13.22;59.78
54876;BME280;40764;48.472;8.166;2024-01-30T12:48:49;99558.47;;;13.18;59.64
54876;BME280;40764;48.472;8.166;2024-01-30T12:54:49;99561.75;;;12.99;60.25
54876;BME280;40764;48.472;8.166;2024-01-30T13:00:50;99561.22;;;12.92;59.91
54876;BME280;40764;48.472;8.166;2024-01-30T13:06:50;99555.19;;;12.90;60.90
54876;BME280;40764;48.472;8.166;2024-01-30T13:12:50;99558.53;;;12.77;61.29
54876;BME280;40764;48.472;8.166;2024-01-30T13:18:51;99553.00;;;12.87;60.10
54876;BME280;40764;48.472;8.166;2024-01-30T13:24:51;99562.34;;;12.91;60.50
54876;BME280;40764;48.472;8.166;2024-01-30T13:30:52;99568.59;;;13.12;58.89
54876;BME280;40764;48.472;8.166;2024-01-30T13:36:52;99571.91;;;13.09;59.02
54876;BME280;40764;48.472;8.166;2024-01-30T13:42:52;99573.56;;;13.05;59.62
54876;BME280;40764;48.472;8.166;2024-01-30T13:48:52;99582.34;;;13.07;58.54
54876;BME280;40764;48.472;8.166;2024-01-30T13:54:53;99584.84;;;12.93;60.47
54876;BME280;40764;48.472;8.166;2024-01-30T14:00:53;99587.31;;;12.85;59.93
54876;BME280;40764;48.472;8.166;2024-01-30T14:06:53;99585.41;;;12.85;60.03
54876;BME280;40764;48.472;8.166;2024-01-30T14:12:54;99584.31;;;12.81;60.08
54876;BME280;40764;48.472;8.166;2024-01-30T14:18:54;99585.69;;;12.68;60.54
54876;BME280;40764;48.472;8.166;2024-01-30T14:24:54;99578.03;;;12.55;61.09
54876;BME280;40764;48.472;8.166;2024-01-30T14:30:56;99584.31;;;12.66;60.51
54876;BME280;40764;48.472;8.166;2024-01-30T14:36:56;99587.09;;;12.46;63.60
54876;BME280;40764;48.472;8.166;2024-01-30T14:42:57;99592.03;;;12.49;62.04
54876;BME280;40764;48.472;8.166;2024-01-30T14:48:57;99596.66;;;12.43;62.51
54876;BME280;40764;48.472;8.166;2024-01-30T14:54:59;99589.81;;;12.30;64.38
54876;BME280;40764;48.472;8.166;2024-01-30T15:00:59;99584.84;;;12.07;65.97
54876;BME280;40764;48.472;8.166;2024-01-30T15:06:59;99589.75;;;11.90;68.02
54876;BME280;40764;48.472;8.166;2024-01-30T15:13:00;99578.41;;;11.71;69.73
54876;BME280;40764;48.472;8.166;2024-01-30T15:19:00;99577.50;;;11.40;72.38
54876;BME280;40764;48.472;8.166;2024-01-30T15:25:00;99592.19;;;11.24;73.16
54876;BME280;40764;48.472;8.166;2024-01-30T15:31:01;99595.53;;;11.31;73.59
54876;BME280;40764;48.472;8.166;2024-01-30T15:37:02;99606.41;;;11.26;72.99
54876;BME280;40764;48.472;8.166;2024-01-30T15:43:03;99614.84;;;11.14;74.12
54876;BME280;40764;48.472;8.166;2024-01-30T15:49:03;99621.22;;;10.82;76.56
54876;BME280;40764;48.472;8.166;2024-01-30T15:55:04;99631.69;;;10.59;78.43
54876;BME280;40764;48.472;8.166;2024-01-30T16:01:04;99632.81;;;10.31;82.05
54876;BME280;40764;48.472;8.166;2024-01-30T16:07:05;99634.22;;;10.11;82.33
54876;BME280;40764;48.472;8.166;2024-01-30T16:13:05;99645.78;;;10.18;81.59
54876;BME280;40764;48.472;8.166;2024-01-30T16:19:05;99655.19;;;10.06;84.48
54876;BME280;40764;48.472;8.166;2024-01-30T16:25:06;99658.69;;;10.01;84.05
54876;BME280;40764;48.472;8.166;2024-01-30T16:31:06;99664.13;;;9.96;84.54
54876;BME280;40764;48.472;8.166;2024-01-30T16:37:06;99686.69;;;9.86;85.34
54876;BME280;40764;48.472;8.166;2024-01-30T16:43:07;99681.91;;;9.77;85.89
54876;BME280;40764;48.472;8.166;2024-01-30T16:49:07;99675.53;;;9.27;88.04
54876;BME280;40764;48.472;8.166;2024-01-30T16:55:07;99682.38;;;9.30;88.33
54876;BME280;40764;48.472;8.166;2024-01-30T17:01:07;99694.50;;;9.39;87.41
54876;BME280;40764;48.472;8.166;2024-01-30T17:07:08;99706.00;;;9.41;87.27
54876;BME280;40764;48.472;8.166;2024-01-30T17:13:08;99711.91;;;9.33;87.81
54876;BME280;40764;48.472;8.166;2024-01-30T17:19:09;99710.75;;;9.12;87.89
54876;BME280;40764;48.472;8.166;2024-01-30T17:25:09;99723.91;;;8.98;90.36
54876;BME280;40764;48.472;8.166;2024-01-30T17:31:09;99726.53;;;9.10;90.16
54876;BME280;40764;48.472;8.166;2024-01-30T17:37:10;99720.69;;;9.02;89.65
54876;BME280;40764;48.472;8.166;2024-01-30T17:43:10;99726.41;;;9.00;90.24
54876;BME280;40764;48.472;8.166;2024-01-30T17:49:10;99734.81;;;9.15;89.47
54876;BME280;40764;48.472;8.166;2024-01-30T17:55:10;99735.31;;;9.12;89.81
54876;BME280;40764;48.472;8.166;2024-01-30T18:01:11;99744.13;;;9.19;89.77
54876;BME280;40764;48.472;8.166;2024-01-30T18:07:11;99753.66;;;9.17;90.60
54876;BME280;40764;48.472;8.166;2024-01-30T18:13:12;99750.00;;;8.94;93.96
54876;BME280;40764;48.472;8.166;2024-01-30T18:19:13;99762.97;;;8.71;97.91
54876;BME280;40764;48.472;8.166;2024-01-30T18:25:14;99765.84;;;8.64;99.88
54876;BME280;40764;48.472;8.166;2024-01-30T18:31:15;99781.50;;;8.85;99.14
54876;BME280;40764;48.472;8.166;2024-01-30T18:37:15;99771.56;;;8.79;99.13
54876;BME280;40764;48.472;8.166;2024-01-30T18:43:16;99781.03;;;8.60;100.00
54876;BME280;40764;48.472;8.166;2024-01-30T18:49:17;99772.41;;;8.51;100.00
54876;BME280;40764;48.472;8.166;2024-01-30T18:55:18;99778.41;;;8.25;100.00
54876;BME280;40764;48.472;8.166;2024-01-30T19:01:18;99775.69;;;8.25;100.00
54876;BME280;40764;48.472;8.166;2024-01-30T19:07:19;99777.75;;;8.06;100.00
54876;BME280;40764;48.472;8.166;2024-01-30T19:13:19;99782.63;;;7.92;100.00
54876;BME280;40764;48.472;8.166;2024-01-30T19:19:19;99776.97;;;7.94;100.00
54876;BME280;40764;48.472;8.166;2024-01-30T19:25:20;99779.72;;;7.82;100.00
54876;BME280;40764;48.472;8.166;2024-01-30T19:31:22;99787.16;;;7.75;100.00
54876;BME280;40764;48.472;8.166;2024-01-30T19:37:22;99789.44;;;7.31;100.00
54876;BME280;40764;48.472;8.166;2024-01-30T19:43:25;99799.31;;;7.14;100.00
54876;BME280;40764;48.472;8.166;2024-01-30T19:49:25;99809.25;;;6.97;100.00
54876;BME280;40764;48.472;8.166;2024-01-30T19:55:25;99806.44;;;7.15;100.00
54876;BME280;40764;48.472;8.166;2024-01-30T20:01:26;99803.09;;;7.01;100.00
54876;BME280;40764;48.472;8.166;2024-01-30T20:07:26;99805.66;;;6.84;100.00
54876;BME280;40764;48.472;8.166;2024-01-30T20:13:26;99808.81;;;6.70;100.00
54876;BME280;40764;48.472;8.166;2024-01-30T20:19:27;99811.78;;;6.50;100.00
54876;BME280;40764;48.472;8.166;2024-01-30T20:25:28;99815.09;;;6.52;100.00
54876;BME280;40764;48.472;8.166;2024-01-30T20:31:28;99814.03;;;6.53;100.00
54876;BME280;40764;48.472;8.166;2024-01-30T20:37:28;99814.03;;;6.53;100.00
54876;BME280;40764;48.472;8.166;2024-01-30T20:43:29;99807.44;;;6.31;100.00
54876;BME280;40764;48.472;8.166;2024-01-30T20:49:29;99815.34;;;6.32;100.00
54876;BME280;40764;48.472;8.166;2024-01-30T20:55:29;99815.84;;;6.11;100.00
54876;BME280;40764;48.472;8.166;2024-01-30T21:01:30;99816.44;;;5.95;100.00
54876;BME280;40764;48.472;8.166;2024-01-30T21:07:30;99822.25;;;5.98;100.00
54876;BME280;40764;48.472;8.166;2024-01-30T21:13:30;99822.56;;;6.08;100.00
54876;BME280;40764;48.472;8.166;2024-01-30T21:19:31;99822.63;;;6.02;100.00
54876;BME280;40764;48.472;8.166;2024-01-30T21:25:31;99819.16;;;6.13;100.00
54876;BME280;40764;48.472;8.166;2024-01-30T21:31:31;99814.78;;;6.12;100.00
54876;BME280;40764;48.472;8.166;2024-01-30T21:37:32;99809.00;;;6.08;100.00
54876;BME280;40764;48.472;8.166;2024-01-30T21:43:35;99805.78;;;6.30;100.00
54876;BME280;40764;48.472;8.166;2024-01-30T21:49:40;99813.25;;;6.34;100.00
54876;BME280;40764;48.472;8.166;2024-01-30T21:55:40;99814.84;;;6.42;100.00
54876;BME280;40764;48.472;8.166;2024-01-30T22:01:41;99821.63;;;6.33;100.00
54876;BME280;40764;48.472;8.166;2024-01-30T22:07:41;99813.47;;;6.33;100.00
54876;BME280;40764;48.472;8.166;2024-01-30T22:13:42;99821.84;;;6.31;100.00
54876;BME280;40764;48.472;8.166;2024-01-30T22:19:42;99819.06;;;6.38;100.00
54876;BME280;40764;48.472;8.166;2024-01-30T22:25:42;99822.53;;;6.45;100.00
54876;BME280;40764;48.472;8.166;2024-01-30T22:31:42;99829.25;;;6.42;100.00
54876;BME280;40764;48.472;8.166;2024-01-30T22:37:43;99830.44;;;6.46;100.00
54876;BME280;40764;48.472;8.166;2024-01-30T22:43:43;99830.38;;;6.35;100.00
54876;BME280;40764;48.472;8.166;2024-01-30T22:49:43;99829.31;;;6.36;100.00
54876;BME280;40764;48.472;8.166;2024-01-30T22:55:43;99839.34;;;6.35;100.00
54876;BME280;40764;48.472;8.166;2024-01-30T23:01:44;99837.75;;;6.46;100.00
54876;BME280;40764;48.472;8.166;2024-01-30T23:07:44;99838.72;;;6.51;100.00
54876;BME280;40764;48.472;8.166;2024-01-30T23:13:44;99844.44;;;6.62;100.00
54876;BME280;40764;48.472;8.166;2024-01-30T23:19:45;99839.81;;;6.62;100.00
54876;BME280;40764;48.472;8.166;2024-01-30T23:25:45;99843.38;;;6.63;100.00
54876;BME280;40764;48.472;8.166;2024-01-30T23:31:45;99849.56;;;6.70;100.00
54876;BME280;40764;48.472;8.166;2024-01-30T23:37:46;99841.81;;;6.55;100.00
54876;BME280;40764;48.472;8.166;2024-01-30T23:43:46;99849.03;;;6.61;100.00
54876;BME280;40764;48.472;8.166;2024-01-30T23:49:46;99848.50;;;6.71;100.00
54876;BME280;40764;48.472;8.166;2024-01-30T23:55:47;99853.34;;;6.69;100.00
